sensor_id;sensor_type;location;lat;lon;timestamp;P1;durP1;ratioP1;P2;durP2;ratioP2
38182;SDS011;23991;52.430;10.586;2022-10-16T00:01:13;1.40;;;0.90;;
38182;SDS011;23991;52.430;10.586;2022-10-16T00:03:40;3.97;;;1.08;;
38182;SDS011;23991;52.430;10.586;2022-10-16T00:06:07;2.75;;;0.85;;
38182;SDS011;23991;52.430;10.586;2022-10-16T00:08:35;1.33;;;1.02;;
38182;SDS011;23991;52.430;10.586;2022-10-16T00:11:02;1.75;;;0.95;;
38182;SDS011;23991;52.430;10.586;2022-10-16T00:13:42;4.30;;;1.27;;
38182;SDS011;23991;52.430;10.586;2022-10-16T00:16:09;3.65;;;1.08;;
38182;SDS011;23991;52.430;10.586;2022-10-16T00:18:35;2.35;;;1.10;;
38182;SDS011;23991;52.430;10.586;2022-10-16T00:21:06;2.67;;;1.20;;
38182;SDS011;23991;52.430;10.586;2022-10-16T00:23:51;5.00;;;1.52;;
38182;SDS011;23991;52.430;10.586;2022-10-16T00:26:19;1.67;;;1.00;;
38182;SDS011;23991;52.430;10.586;2022-10-16T00:28:45;2.42;;;1.35;;
38182;SDS011;23991;52.430;10.586;2022-10-16T00:31:15;3.08;;;1.13;;
38182;SDS011;23991;52.430;10.586;2022-10-16T00:33:43;4.18;;;1.20;;
38182;SDS011;23991;52.430;10.586;2022-10-16T00:36:13;2.33;;;1.02;;
38182;SDS011;23991;52.430;10.586;2022-10-16T00:38:42;3.58;;;1.30;;
38182;SDS011;23991;52.430;10.586;2022-10-16T00:41:13;2.75;;;1.40;;
38182;SDS011;23991;52.430;10.586;2022-10-16T00:43:48;2.45;;;1.38;;
38182;SDS011;23991;52.430;10.586;2022-10-16T00:48:56;5.82;;;1.30;;
38182;SDS011;23991;52.430;10.586;2022-10-16T00:51:48;2.67;;;1.50;;
38182;SDS011;23991;52.430;10.586;2022-10-16T00:54:17;2.50;;;1.10;;
38182;SDS011;23991;52.430;10.586;2022-10-16T00:56:49;4.07;;;1.10;;
38182;SDS011;23991;52.430;10.586;2022-10-16T00:59:20;2.00;;;1.15;;
38182;SDS011;23991;52.430;10.586;2022-10-16T01:01:54;4.68;;;1.40;;
38182;SDS011;23991;52.430;10.586;2022-10-16T01:04:21;3.17;;;1.40;;
38182;SDS011;23991;52.430;10.586;2022-10-16T01:09:24;3.88;;;1.23;;
38182;SDS011;23991;52.430;10.586;2022-10-16T01:12:16;2.92;;;1.33;;
38182;SDS011;23991;52.430;10.586;2022-10-16T01:17:42;2.97;;;1.50;;
38182;SDS011;23991;52.430;10.586;2022-10-16T01:20:26;2.78;;;1.02;;
38182;SDS011;23991;52.430;10.586;2022-10-16T01:28:17;4.50;;;1.70;;
38182;SDS011;23991;52.430;10.586;2022-10-16T01:30:46;1.92;;;1.33;;
38182;SDS011;23991;52.430;10.586;2022-10-16T01:33:17;3.80;;;1.55;;
38182;SDS011;23991;52.430;10.586;2022-10-16T01:35:47;4.68;;;1.58;;
38182;SDS011;23991;52.430;10.586;2022-10-16T01:40:51;1.60;;;1.08;;
38182;SDS011;23991;52.430;10.586;2022-10-16T01:43:22;2.63;;;1.38;;
38182;SDS011;23991;52.430;10.586;2022-10-16T01:45:52;2.47;;;1.50;;
38182;SDS011;23991;52.430;10.586;2022-10-16T01:48:19;3.85;;;1.48;;
38182;SDS011;23991;52.430;10.586;2022-10-16T01:50:50;2.55;;;1.58;;
38182;SDS011;23991;52.430;10.586;2022-10-16T01:53:21;2.22;;;1.25;;
38182;SDS011;23991;52.430;10.586;2022-10-16T01:55:49;3.58;;;1.65;;
38182;SDS011;23991;52.430;10.586;2022-10-16T01:58:16;5.55;;;1.63;;
38182;SDS011;23991;52.430;10.586;2022-10-16T02:00:43;4.20;;;1.58;;
38182;SDS011;23991;52.430;10.586;2022-10-16T02:03:12;2.58;;;1.30;;
38182;SDS011;23991;52.430;10.586;2022-10-16T02:05:41;2.50;;;1.50;;
38182;SDS011;23991;52.430;10.586;2022-10-16T02:08:08;2.80;;;1.63;;
38182;SDS011;23991;52.430;10.586;2022-10-16T02:10:34;4.43;;;1.75;;
38182;SDS011;23991;52.430;10.586;2022-10-16T02:13:03;2.97;;;1.73;;
38182;SDS011;23991;52.430;10.586;2022-10-16T02:15:34;3.13;;;1.60;;
38182;SDS011;23991;52.430;10.586;2022-10-16T02:18:01;4.38;;;1.60;;
38182;SDS011;23991;52.430;10.586;2022-10-16T02:20:28;6.82;;;2.40;;
38182;SDS011;23991;52.430;10.586;2022-10-16T02:22:59;5.57;;;1.70;;
38182;SDS011;23991;52.430;10.586;2022-10-16T02:28:11;3.78;;;1.63;;
38182;SDS011;23991;52.430;10.586;2022-10-16T02:30:50;3.60;;;1.65;;
38182;SDS011;23991;52.430;10.586;2022-10-16T02:33:21;2.25;;;1.70;;
38182;SDS011;23991;52.430;10.586;2022-10-16T02:35:47;2.10;;;1.35;;
38182;SDS011;23991;52.430;10.586;2022-10-16T02:38:15;2.60;;;1.90;;
38182;SDS011;23991;52.430;10.586;2022-10-16T02:40:42;4.05;;;1.75;;
38182;SDS011;23991;52.430;10.586;2022-10-16T02:43:08;2.67;;;1.70;;
38182;SDS011;23991;52.430;10.586;2022-10-16T02:45:34;3.10;;;2.30;;
38182;SDS011;23991;52.430;10.586;2022-10-16T02:48:00;3.20;;;1.65;;
38182;SDS011;23991;52.430;10.586;2022-10-16T02:50:25;4.22;;;1.73;;
38182;SDS011;23991;52.430;10.586;2022-10-16T02:52:51;3.65;;;1.60;;
38182;SDS011;23991;52.430;10.586;2022-10-16T02:55:17;4.63;;;1.52;;
38182;SDS011;23991;52.430;10.586;2022-10-16T02:57:43;3.83;;;1.60;;
38182;SDS011;23991;52.430;10.586;2022-10-16T03:00:09;3.53;;;1.90;;
38182;SDS011;23991;52.430;10.586;2022-10-16T03:02:37;3.95;;;1.60;;
38182;SDS011;23991;52.430;10.586;2022-10-16T03:05:03;3.65;;;1.80;;
38182;SDS011;23991;52.430;10.586;2022-10-16T03:07:29;2.80;;;1.40;;
38182;SDS011;23991;52.430;10.586;2022-10-16T03:09:54;5.78;;;1.85;;
38182;SDS011;23991;52.430;10.586;2022-10-16T03:12:20;3.75;;;1.90;;
38182;SDS011;23991;52.430;10.586;2022-10-16T03:14:46;2.80;;;1.67;;
38182;SDS011;23991;52.430;10.586;2022-10-16T03:17:12;2.53;;;1.67;;
38182;SDS011;23991;52.430;10.586;2022-10-16T03:19:38;2.15;;;1.55;;
38182;SDS011;23991;52.430;10.586;2022-10-16T03:22:04;3.95;;;1.85;;
38182;SDS011;23991;52.430;10.586;2022-10-16T03:24:30;3.42;;;1.65;;
38182;SDS011;23991;52.430;10.586;2022-10-16T03:26:58;2.97;;;1.73;;
38182;SDS011;23991;52.430;10.586;2022-10-16T03:29:24;3.22;;;1.77;;
38182;SDS011;23991;52.430;10.586;2022-10-16T03:31:50;5.75;;;1.70;;
38182;SDS011;23991;52.430;10.586;2022-10-16T03:34:16;2.65;;;1.77;;
38182;SDS011;23991;52.430;10.586;2022-10-16T03:36:42;3.20;;;1.83;;
38182;SDS011;23991;52.430;10.586;2022-10-16T03:39:08;4.18;;;2.10;;
38182;SDS011;23991;52.430;10.586;2022-10-16T03:41:34;3.78;;;1.75;;
38182;SDS011;23991;52.430;10.586;2022-10-16T03:43:59;2.97;;;1.90;;
38182;SDS011;23991;52.430;10.586;2022-10-16T03:46:25;3.90;;;1.50;;
38182;SDS011;23991;52.430;10.586;2022-10-16T03:48:50;2.38;;;1.75;;
38182;SDS011;23991;52.430;10.586;2022-10-16T03:51:16;3.72;;;1.80;;
38182;SDS011;23991;52.430;10.586;2022-10-16T03:53:41;4.00;;;1.70;;
38182;SDS011;23991;52.430;10.586;2022-10-16T03:56:07;3.15;;;1.83;;
38182;SDS011;23991;52.430;10.586;2022-10-16T03:58:33;3.30;;;2.00;;
38182;SDS011;23991;52.430;10.586;2022-10-16T04:00:59;3.00;;;1.70;;
38182;SDS011;23991;52.430;10.586;2022-10-16T04:03:24;3.78;;;1.85;;
38182;SDS011;23991;52.430;10.586;2022-10-16T04:05:50;2.63;;;1.92;;
38182;SDS011;23991;52.430;10.586;2022-10-16T04:08:16;4.57;;;2.17;;
38182;SDS011;23991;52.430;10.586;2022-10-16T04:10:42;2.13;;;1.60;;
38182;SDS011;23991;52.430;10.586;2022-10-16T04:13:08;2.35;;;1.77;;
38182;SDS011;23991;52.430;10.586;2022-10-16T04:15:34;2.80;;;2.00;;
38182;SDS011;23991;52.430;10.586;2022-10-16T04:17:59;1.83;;;1.52;;
38182;SDS011;23991;52.430;10.586;2022-10-16T04:20:25;3.50;;;1.65;;
38182;SDS011;23991;52.430;10.586;2022-10-16T04:22:51;5.82;;;2.00;;
38182;SDS011;23991;52.430;10.586;2022-10-16T04:25:16;3.10;;;1.85;;
38182;SDS011;23991;52.430;10.586;2022-10-16T04:27:42;2.42;;;1.65;;
38182;SDS011;23991;52.430;10.586;2022-10-16T04:30:07;5.40;;;1.70;;
38182;SDS011;23991;52.430;10.586;2022-10-16T04:32:33;2.90;;;1.80;;
38182;SDS011;23991;52.430;10.586;2022-10-16T04:34:59;2.65;;;1.50;;
38182;SDS011;23991;52.430;10.586;2022-10-16T04:37:25;2.80;;;1.80;;
38182;SDS011;23991;52.430;10.586;2022-10-16T04:39:52;2.90;;;1.60;;
38182;SDS011;23991;52.430;10.586;2022-10-16T04:42:18;3.10;;;2.50;;
38182;SDS011;23991;52.430;10.586;2022-10-16T04:44:44;7.28;;;1.63;;
38182;SDS011;23991;52.430;10.586;2022-10-16T04:47:09;2.45;;;1.60;;
38182;SDS011;23991;52.430;10.586;2022-10-16T04:49:35;3.08;;;1.85;;
38182;SDS011;23991;52.430;10.586;2022-10-16T04:52:00;2.92;;;2.00;;
38182;SDS011;23991;52.430;10.586;2022-10-16T04:54:26;3.63;;;1.73;;
38182;SDS011;23991;52.430;10.586;2022-10-16T04:56:52;4.15;;;1.77;;
38182;SDS011;23991;52.430;10.586;2022-10-16T04:59:18;2.80;;;1.80;;
38182;SDS011;23991;52.430;10.586;2022-10-16T05:01:44;4.45;;;2.10;;
38182;SDS011;23991;52.430;10.586;2022-10-16T05:04:10;2.78;;;1.73;;
38182;SDS011;23991;52.430;10.586;2022-10-16T05:06:36;2.42;;;1.55;;
38182;SDS011;23991;52.430;10.586;2022-10-16T05:09:03;4.65;;;2.08;;
38182;SDS011;23991;52.430;10.586;2022-10-16T05:11:30;3.05;;;1.90;;
38182;SDS011;23991;52.430;10.586;2022-10-16T05:13:56;3.13;;;2.13;;
38182;SDS011;23991;52.430;10.586;2022-10-16T05:16:22;3.75;;;1.80;;
38182;SDS011;23991;52.430;10.586;2022-10-16T05:18:47;4.30;;;1.83;;
38182;SDS011;23991;52.430;10.586;2022-10-16T05:21:13;4.13;;;1.92;;
38182;SDS011;23991;52.430;10.586;2022-10-16T05:23:39;3.30;;;2.00;;
38182;SDS011;23991;52.430;10.586;2022-10-16T05:26:05;4.97;;;1.90;;
38182;SDS011;23991;52.430;10.586;2022-10-16T05:28:30;4.72;;;1.90;;
38182;SDS011;23991;52.430;10.586;2022-10-16T05:30:56;4.30;;;2.40;;
38182;SDS011;23991;52.430;10.586;2022-10-16T05:33:23;3.45;;;1.90;;
38182;SDS011;23991;52.430;10.586;2022-10-16T05:35:50;5.68;;;2.40;;
38182;SDS011;23991;52.430;10.586;2022-10-16T05:38:17;5.20;;;2.17;;
38182;SDS011;23991;52.430;10.586;2022-10-16T05:40:43;4.45;;;2.42;;
38182;SDS011;23991;52.430;10.586;2022-10-16T05:43:15;3.38;;;2.10;;
38182;SDS011;23991;52.430;10.586;2022-10-16T05:45:41;5.55;;;2.22;;
38182;SDS011;23991;52.430;10.586;2022-10-16T05:48:06;2.80;;;1.90;;
38182;SDS011;23991;52.430;10.586;2022-10-16T05:50:32;6.18;;;2.33;;
38182;SDS011;23991;52.430;10.586;2022-10-16T05:52:58;3.63;;;2.10;;
38182;SDS011;23991;52.430;10.586;2022-10-16T05:55:24;4.00;;;2.38;;
38182;SDS011;23991;52.430;10.586;2022-10-16T05:57:50;7.07;;;2.40;;
38182;SDS011;23991;52.430;10.586;2022-10-16T06:00:19;5.57;;;2.60;;
38182;SDS011;23991;52.430;10.586;2022-10-16T06:02:45;7.10;;;2.47;;
38182;SDS011;23991;52.430;10.586;2022-10-16T06:05:11;4.60;;;2.20;;
38182;SDS011;23991;52.430;10.586;2022-10-16T06:07:37;7.82;;;3.35;;
38182;SDS011;23991;52.430;10.586;2022-10-16T06:10:03;6.22;;;3.47;;
38182;SDS011;23991;52.430;10.586;2022-10-16T06:12:29;4.25;;;2.38;;
38182;SDS011;23991;52.430;10.586;2022-10-16T06:14:58;5.25;;;2.47;;
38182;SDS011;23991;52.430;10.586;2022-10-16T06:17:23;5.03;;;2.55;;
38182;SDS011;23991;52.430;10.586;2022-10-16T06:19:49;4.90;;;2.28;;
38182;SDS011;23991;52.430;10.586;2022-10-16T06:22:14;3.60;;;2.50;;
38182;SDS011;23991;52.430;10.586;2022-10-16T06:24:41;4.03;;;2.50;;
38182;SDS011;23991;52.430;10.586;2022-10-16T06:27:06;5.00;;;2.35;;
38182;SDS011;23991;52.430;10.586;2022-10-16T06:29:32;7.82;;;3.13;;
38182;SDS011;23991;52.430;10.586;2022-10-16T06:31:58;5.55;;;2.10;;
38182;SDS011;23991;52.430;10.586;2022-10-16T06:34:24;2.88;;;2.08;;
38182;SDS011;23991;52.430;10.586;2022-10-16T06:36:50;5.70;;;2.30;;
38182;SDS011;23991;52.430;10.586;2022-10-16T06:39:16;5.28;;;2.75;;
38182;SDS011;23991;52.430;10.586;2022-10-16T06:41:42;3.38;;;2.05;;
38182;SDS011;23991;52.430;10.586;2022-10-16T06:44:09;3.03;;;2.03;;
38182;SDS011;23991;52.430;10.586;2022-10-16T06:46:35;6.90;;;2.60;;
38182;SDS011;23991;52.430;10.586;2022-10-16T06:49:01;6.57;;;2.50;;
38182;SDS011;23991;52.430;10.586;2022-10-16T06:51:27;3.35;;;2.20;;
38182;SDS011;23991;52.430;10.586;2022-10-16T06:53:55;4.60;;;2.20;;
38182;SDS011;23991;52.430;10.586;2022-10-16T06:56:24;4.15;;;2.35;;
38182;SDS011;23991;52.430;10.586;2022-10-16T06:58:55;3.80;;;2.47;;
38182;SDS011;23991;52.430;10.586;2022-10-16T07:01:23;4.32;;;2.83;;
38182;SDS011;23991;52.430;10.586;2022-10-16T07:03:49;6.05;;;2.40;;
38182;SDS011;23991;52.430;10.586;2022-10-16T07:06:17;4.88;;;2.05;;
38182;SDS011;23991;52.430;10.586;2022-10-16T07:08:45;5.97;;;2.35;;
38182;SDS011;23991;52.430;10.586;2022-10-16T07:11:13;5.35;;;2.47;;
38182;SDS011;23991;52.430;10.586;2022-10-16T07:13:43;5.47;;;2.55;;
38182;SDS011;23991;52.430;10.586;2022-10-16T07:16:14;4.55;;;2.13;;
38182;SDS011;23991;52.430;10.586;2022-10-16T07:18:40;5.18;;;2.80;;
38182;SDS011;23991;52.430;10.586;2022-10-16T07:21:30;4.22;;;2.30;;
38182;SDS011;23991;52.430;10.586;2022-10-16T07:23:56;4.05;;;2.28;;
38182;SDS011;23991;52.430;10.586;2022-10-16T07:26:24;7.45;;;2.25;;
38182;SDS011;23991;52.430;10.586;2022-10-16T07:28:50;4.57;;;2.13;;
38182;SDS011;23991;52.430;10.586;2022-10-16T07:31:17;3.70;;;2.10;;
38182;SDS011;23991;52.430;10.586;2022-10-16T07:33:48;3.95;;;2.45;;
38182;SDS011;23991;52.430;10.586;2022-10-16T07:36:15;3.40;;;2.10;;
38182;SDS011;23991;52.430;10.586;2022-10-16T07:38:42;4.53;;;2.10;;
38182;SDS011;23991;52.430;10.586;2022-10-16T07:41:12;3.97;;;1.98;;
38182;SDS011;23991;52.430;10.586;2022-10-16T07:43:39;3.92;;;1.60;;
38182;SDS011;23991;52.430;10.586;2022-10-16T07:46:10;4.00;;;1.88;;
38182;SDS011;23991;52.430;10.586;2022-10-16T07:48:35;2.83;;;1.48;;
38182;SDS011;23991;52.430;10.586;2022-10-16T07:51:02;2.03;;;1.40;;
38182;SDS011;23991;52.430;10.586;2022-10-16T07:53:29;2.90;;;1.50;;
38182;SDS011;23991;52.430;10.586;2022-10-16T07:55:58;7.35;;;1.75;;
38182;SDS011;23991;52.430;10.586;2022-10-16T08:00:51;3.67;;;1.48;;
38182;SDS011;23991;52.430;10.586;2022-10-16T08:03:17;2.67;;;1.40;;
38182;SDS011;23991;52.430;10.586;2022-10-16T08:05:42;3.30;;;1.20;;
38182;SDS011;23991;52.430;10.586;2022-10-16T08:08:11;1.08;;;0.90;;
38182;SDS011;23991;52.430;10.586;2022-10-16T08:10:42;9.77;;;1.50;;
38182;SDS011;23991;52.430;10.586;2022-10-16T08:13:07;3.25;;;1.20;;
38182;SDS011;23991;52.430;10.586;2022-10-16T08:15:33;2.08;;;1.20;;
38182;SDS011;23991;52.430;10.586;2022-10-16T08:18:03;2.03;;;1.10;;
38182;SDS011;23991;52.430;10.586;2022-10-16T08:20:30;2.95;;;1.08;;
38182;SDS011;23991;52.430;10.586;2022-10-16T08:22:56;1.15;;;1.00;;
38182;SDS011;23991;52.430;10.586;2022-10-16T08:25:22;2.90;;;1.15;;
38182;SDS011;23991;52.430;10.586;2022-10-16T08:27:48;1.73;;;1.30;;
38182;SDS011;23991;52.430;10.586;2022-10-16T08:30:15;1.60;;;1.10;;
38182;SDS011;23991;52.430;10.586;2022-10-16T08:32:41;1.45;;;1.10;;
38182;SDS011;23991;52.430;10.586;2022-10-16T08:35:07;2.05;;;1.00;;
38182;SDS011;23991;52.430;10.586;2022-10-16T08:37:34;1.08;;;0.90;;
38182;SDS011;23991;52.430;10.586;2022-10-16T08:40:00;1.48;;;1.05;;
38182;SDS011;23991;52.430;10.586;2022-10-16T08:47:40;1.30;;;1.00;;
38182;SDS011;23991;52.430;10.586;2022-10-16T08:50:10;1.65;;;1.10;;
38182;SDS011;23991;52.430;10.586;2022-10-16T08:52:39;4.22;;;1.13;;
38182;SDS011;23991;52.430;10.586;2022-10-16T08:55:08;1.42;;;1.00;;
38182;SDS011;23991;52.430;10.586;2022-10-16T08:58:05;2.42;;;1.00;;
38182;SDS011;23991;52.430;10.586;2022-10-16T09:00:40;1.58;;;1.08;;
38182;SDS011;23991;52.430;10.586;2022-10-16T09:03:30;1.15;;;1.00;;
38182;SDS011;23991;52.430;10.586;2022-10-16T09:11:52;1.25;;;0.98;;
38182;SDS011;23991;52.430;10.586;2022-10-16T09:19:57;0.80;;;0.80;;
38182;SDS011;23991;52.430;10.586;2022-10-16T09:22:32;4.88;;;1.20;;
38182;SDS011;23991;52.430;10.586;2022-10-16T09:24:59;1.52;;;1.00;;
38182;SDS011;23991;52.430;10.586;2022-10-16T09:27:30;2.40;;;1.00;;
38182;SDS011;23991;52.430;10.586;2022-10-16T09:29:56;2.25;;;1.17;;
38182;SDS011;23991;52.430;10.586;2022-10-16T09:32:21;3.85;;;1.10;;
38182;SDS011;23991;52.430;10.586;2022-10-16T09:34:48;2.95;;;0.90;;
38182;SDS011;23991;52.430;10.586;2022-10-16T09:37:17;1.95;;;1.05;;
38182;SDS011;23991;52.430;10.586;2022-10-16T09:39:49;1.30;;;1.00;;
38182;SDS011;23991;52.430;10.586;2022-10-16T09:42:20;2.65;;;1.00;;
38182;SDS011;23991;52.430;10.586;2022-10-16T09:44:52;1.17;;;0.90;;
38182;SDS011;23991;52.430;10.586;2022-10-16T09:47:28;1.90;;;1.25;;
38182;SDS011;23991;52.430;10.586;2022-10-16T09:49:56;2.20;;;0.95;;
38182;SDS011;23991;52.430;10.586;2022-10-16T09:52:31;1.23;;;0.93;;
38182;SDS011;23991;52.430;10.586;2022-10-16T09:55:01;2.53;;;1.20;;
38182;SDS011;23991;52.430;10.586;2022-10-16T10:00:16;1.10;;;0.90;;
38182;SDS011;23991;52.430;10.586;2022-10-16T10:02:43;1.90;;;0.80;;
38182;SDS011;23991;52.430;10.586;2022-10-16T10:05:22;2.78;;;0.75;;
38182;SDS011;23991;52.430;10.586;2022-10-16T10:07:57;2.30;;;1.02;;
38182;SDS011;23991;52.430;10.586;2022-10-16T10:12:55;1.13;;;0.90;;
38182;SDS011;23991;52.430;10.586;2022-10-16T10:15:21;4.68;;;1.20;;
38182;SDS011;23991;52.430;10.586;2022-10-16T10:17:53;1.00;;;0.80;;
38182;SDS011;23991;52.430;10.586;2022-10-16T10:22:59;1.38;;;0.70;;
38182;SDS011;23991;52.430;10.586;2022-10-16T10:25:34;2.67;;;1.00;;
38182;SDS011;23991;52.430;10.586;2022-10-16T10:31:24;2.05;;;0.85;;
38182;SDS011;23991;52.430;10.586;2022-10-16T10:36:39;1.33;;;0.70;;
38182;SDS011;23991;52.430;10.586;2022-10-16T10:39:15;0.88;;;0.80;;
38182;SDS011;23991;52.430;10.586;2022-10-16T10:44:52;2.30;;;1.02;;
38182;SDS011;23991;52.430;10.586;2022-10-16T10:52:51;3.20;;;0.80;;
38182;SDS011;23991;52.430;10.586;2022-10-16T10:55:26;2.03;;;1.02;;
38182;SDS011;23991;52.430;10.586;2022-10-16T11:06:15;3.85;;;1.25;;
38182;SDS011;23991;52.430;10.586;2022-10-16T11:08:48;2.92;;;0.88;;
38182;SDS011;23991;52.430;10.586;2022-10-16T11:21:49;2.05;;;1.10;;
38182;SDS011;23991;52.430;10.586;2022-10-16T11:24:32;1.98;;;0.90;;
38182;SDS011;23991;52.430;10.586;2022-10-16T11:27:03;3.10;;;0.98;;
38182;SDS011;23991;52.430;10.586;2022-10-16T11:29:33;3.97;;;0.80;;
38182;SDS011;23991;52.430;10.586;2022-10-16T11:32:10;4.07;;;0.82;;
38182;SDS011;23991;52.430;10.586;2022-10-16T11:34:50;2.25;;;0.90;;
38182;SDS011;23991;52.430;10.586;2022-10-16T11:37:21;1.75;;;0.90;;
38182;SDS011;23991;52.430;10.586;2022-10-16T11:39:53;2.58;;;1.00;;
38182;SDS011;23991;52.430;10.586;2022-10-16T11:42:22;3.80;;;1.00;;
38182;SDS011;23991;52.430;10.586;2022-10-16T11:55:34;2.63;;;1.10;;
38182;SDS011;23991;52.430;10.586;2022-10-16T11:58:16;5.95;;;1.25;;
38182;SDS011;23991;52.430;10.586;2022-10-16T12:03:21;2.13;;;0.90;;
38182;SDS011;23991;52.430;10.586;2022-10-16T12:06:23;3.35;;;1.13;;
38182;SDS011;23991;52.430;10.586;2022-10-16T12:08:56;1.48;;;1.08;;
38182;SDS011;23991;52.430;10.586;2022-10-16T12:16:39;2.50;;;1.00;;
38182;SDS011;23991;52.430;10.586;2022-10-16T12:19:24;2.50;;;1.00;;
38182;SDS011;23991;52.430;10.586;2022-10-16T12:21:53;3.25;;;1.27;;
38182;SDS011;23991;52.430;10.586;2022-10-16T12:26:56;2.10;;;1.10;;
38182;SDS011;23991;52.430;10.586;2022-10-16T12:34:30;3.83;;;1.20;;
38182;SDS011;23991;52.430;10.586;2022-10-16T12:37:14;3.45;;;1.20;;
38182;SDS011;23991;52.430;10.586;2022-10-16T12:39:49;2.80;;;1.10;;
38182;SDS011;23991;52.430;10.586;2022-10-16T12:42:22;5.00;;;1.05;;
38182;SDS011;23991;52.430;10.586;2022-10-16T12:44:58;2.80;;;0.98;;
38182;SDS011;23991;52.430;10.586;2022-10-16T12:49:57;3.83;;;1.20;;
38182;SDS011;23991;52.430;10.586;2022-10-16T12:52:45;1.92;;;1.00;;
38182;SDS011;23991;52.430;10.586;2022-10-16T12:55:16;4.15;;;1.13;;
38182;SDS011;23991;52.430;10.586;2022-10-16T13:00:57;2.85;;;1.25;;
38182;SDS011;23991;52.430;10.586;2022-10-16T13:15:28;2.60;;;1.08;;
38182;SDS011;23991;52.430;10.586;2022-10-16T13:21:12;3.03;;;0.90;;
38182;SDS011;23991;52.430;10.586;2022-10-16T13:24:02;1.55;;;0.90;;
38182;SDS011;23991;52.430;10.586;2022-10-16T13:29:31;2.80;;;0.80;;
38182;SDS011;23991;52.430;10.586;2022-10-16T13:31:57;1.40;;;0.70;;
38182;SDS011;23991;52.430;10.586;2022-10-16T13:34:41;1.55;;;0.80;;
38182;SDS011;23991;52.430;10.586;2022-10-16T13:37:17;3.30;;;0.98;;
38182;SDS011;23991;52.430;10.586;2022-10-16T13:39:44;1.52;;;0.90;;
38182;SDS011;23991;52.430;10.586;2022-10-16T13:44:44;3.20;;;1.23;;
38182;SDS011;23991;52.430;10.586;2022-10-16T13:47:16;2.30;;;1.10;;
38182;SDS011;23991;52.430;10.586;2022-10-16T13:49:44;3.70;;;0.80;;
38182;SDS011;23991;52.430;10.586;2022-10-16T13:52:17;4.10;;;0.95;;
38182;SDS011;23991;52.430;10.586;2022-10-16T13:54:44;5.18;;;1.05;;
38182;SDS011;23991;52.430;10.586;2022-10-16T13:57:12;2.40;;;0.95;;
38182;SDS011;23991;52.430;10.586;2022-10-16T13:59:42;0.90;;;0.68;;
38182;SDS011;23991;52.430;10.586;2022-10-16T14:04:59;2.63;;;1.00;;
38182;SDS011;23991;52.430;10.586;2022-10-16T14:07:28;1.75;;;0.70;;
38182;SDS011;23991;52.430;10.586;2022-10-16T14:09:56;1.35;;;0.65;;
38182;SDS011;23991;52.430;10.586;2022-10-16T14:12:26;1.73;;;0.90;;
38182;SDS011;23991;52.430;10.586;2022-10-16T14:14:53;0.93;;;0.70;;
38182;SDS011;23991;52.430;10.586;2022-10-16T14:17:27;3.50;;;0.90;;
38182;SDS011;23991;52.430;10.586;2022-10-16T14:19:58;1.13;;;0.70;;
38182;SDS011;23991;52.430;10.586;2022-10-16T14:25:08;2.67;;;0.70;;
38182;SDS011;23991;52.430;10.586;2022-10-16T14:27:45;2.72;;;1.10;;
38182;SDS011;23991;52.430;10.586;2022-10-16T14:30:24;1.98;;;0.70;;
38182;SDS011;23991;52.430;10.586;2022-10-16T14:33:30;2.20;;;0.90;;
38182;SDS011;23991;52.430;10.586;2022-10-16T14:35:45;2.10;;;0.80;;
38182;SDS011;23991;52.430;10.586;2022-10-16T14:38:18;1.00;;;0.63;;
38182;SDS011;23991;52.430;10.586;2022-10-16T14:40:48;1.60;;;0.80;;
38182;SDS011;23991;52.430;10.586;2022-10-16T14:43:19;2.58;;;1.00;;
38182;SDS011;23991;52.430;10.586;2022-10-16T14:45:51;4.32;;;1.00;;
38182;SDS011;23991;52.430;10.586;2022-10-16T14:48:19;2.65;;;0.95;;
38182;SDS011;23991;52.430;10.586;2022-10-16T14:50:45;2.55;;;0.93;;
38182;SDS011;23991;52.430;10.586;2022-10-16T14:53:12;2.45;;;1.10;;
38182;SDS011;23991;52.430;10.586;2022-10-16T14:55:40;2.00;;;1.13;;
38182;SDS011;23991;52.430;10.586;2022-10-16T14:58:09;2.83;;;0.80;;
38182;SDS011;23991;52.430;10.586;2022-10-16T15:00:40;2.30;;;0.90;;
38182;SDS011;23991;52.430;10.586;2022-10-16T15:03:05;2.05;;;0.80;;
38182;SDS011;23991;52.430;10.586;2022-10-16T15:05:31;3.08;;;0.90;;
38182;SDS011;23991;52.430;10.586;2022-10-16T15:07:57;2.08;;;0.80;;
38182;SDS011;23991;52.430;10.586;2022-10-16T15:10:25;1.40;;;0.65;;
38182;SDS011;23991;52.430;10.586;2022-10-16T15:17:55;2.38;;;1.10;;
38182;SDS011;23991;52.430;10.586;2022-10-16T15:20:22;3.42;;;1.20;;
38182;SDS011;23991;52.430;10.586;2022-10-16T15:22:49;3.88;;;1.20;;
38182;SDS011;23991;52.430;10.586;2022-10-16T15:28:02;2.95;;;1.40;;
38182;SDS011;23991;52.430;10.586;2022-10-16T15:30:29;4.13;;;1.70;;
38182;SDS011;23991;52.430;10.586;2022-10-16T15:32:55;2.10;;;1.13;;
38182;SDS011;23991;52.430;10.586;2022-10-16T15:35:21;1.65;;;0.80;;
38182;SDS011;23991;52.430;10.586;2022-10-16T15:37:47;2.45;;;0.80;;
38182;SDS011;23991;52.430;10.586;2022-10-16T15:40:14;1.83;;;0.90;;
38182;SDS011;23991;52.430;10.586;2022-10-16T15:42:41;1.27;;;0.88;;
38182;SDS011;23991;52.430;10.586;2022-10-16T15:45:07;2.05;;;0.90;;
38182;SDS011;23991;52.430;10.586;2022-10-16T15:47:34;2.75;;;1.30;;
38182;SDS011;23991;52.430;10.586;2022-10-16T15:50:00;2.22;;;1.02;;
38182;SDS011;23991;52.430;10.586;2022-10-16T15:52:27;2.50;;;1.30;;
38182;SDS011;23991;52.430;10.586;2022-10-16T15:54:56;2.30;;;1.10;;
38182;SDS011;23991;52.430;10.586;2022-10-16T15:57:23;4.45;;;1.17;;
38182;SDS011;23991;52.430;10.586;2022-10-16T15:59:49;3.10;;;1.52;;
38182;SDS011;23991;52.430;10.586;2022-10-16T16:02:15;1.95;;;1.30;;
38182;SDS011;23991;52.430;10.586;2022-10-16T16:04:41;4.13;;;1.63;;
38182;SDS011;23991;52.430;10.586;2022-10-16T16:07:07;2.15;;;1.20;;
38182;SDS011;23991;52.430;10.586;2022-10-16T16:09:33;3.65;;;0.90;;
38182;SDS011;23991;52.430;10.586;2022-10-16T16:12:00;1.80;;;1.30;;
38182;SDS011;23991;52.430;10.586;2022-10-16T16:14:26;2.50;;;1.30;;
38182;SDS011;23991;52.430;10.586;2022-10-16T16:16:53;3.83;;;1.67;;
38182;SDS011;23991;52.430;10.586;2022-10-16T16:19:20;3.88;;;1.50;;
38182;SDS011;23991;52.430;10.586;2022-10-16T16:21:47;3.83;;;1.38;;
38182;SDS011;23991;52.430;10.586;2022-10-16T16:24:13;3.13;;;1.48;;
38182;SDS011;23991;52.430;10.586;2022-10-16T16:26:38;2.28;;;1.27;;
38182;SDS011;23991;52.430;10.586;2022-10-16T16:29:08;3.00;;;1.58;;
38182;SDS011;23991;52.430;10.586;2022-10-16T16:31:39;2.33;;;1.30;;
38182;SDS011;23991;52.430;10.586;2022-10-16T16:34:06;5.30;;;1.83;;
38182;SDS011;23991;52.430;10.586;2022-10-16T16:36:32;4.93;;;2.13;;
38182;SDS011;23991;52.430;10.586;2022-10-16T16:38:58;5.40;;;1.80;;
38182;SDS011;23991;52.430;10.586;2022-10-16T16:41:25;4.22;;;1.88;;
38182;SDS011;23991;52.430;10.586;2022-10-16T16:43:52;4.10;;;1.85;;
38182;SDS011;23991;52.430;10.586;2022-10-16T16:46:19;6.88;;;2.33;;
38182;SDS011;23991;52.430;10.586;2022-10-16T16:48:46;7.38;;;2.00;;
38182;SDS011;23991;52.430;10.586;2022-10-16T16:51:13;7.20;;;2.33;;
38182;SDS011;23991;52.430;10.586;2022-10-16T16:53:43;3.35;;;1.63;;
38182;SDS011;23991;52.430;10.586;2022-10-16T16:56:11;3.58;;;1.50;;
38182;SDS011;23991;52.430;10.586;2022-10-16T16:58:37;7.93;;;4.85;;
38182;SDS011;23991;52.430;10.586;2022-10-16T17:01:03;7.70;;;4.18;;
38182;SDS011;23991;52.430;10.586;2022-10-16T17:03:31;5.15;;;2.88;;
38182;SDS011;23991;52.430;10.586;2022-10-16T17:06:00;5.88;;;3.80;;
38182;SDS011;23991;52.430;10.586;2022-10-16T17:08:28;6.47;;;4.17;;